Time;durP1;ratioP1;P1;durP2;ratioP2;P2;SDS_P1;SDS_P2;PMS_P1;PMS_P2;Temp;Humidity;BMP_temperature;BMP_pressure;BME280_temperature;BME280_humidity;BME280_pressure;Samples;Min_cycle;Max_cycle;Signal;HPM_P1;HPM_P2
2021/08/22 00:00:32;;;;;;;0.20;0.20;;;;;;;;;;5051498;28;20033;-88
2021/08/22 00:02:59;;;;;;;0.10;0.10;;;;;;;;;;5051386;28;20040;-88
2021/08/22 00:05:25;;;;;;;0.30;0.30;;;;;;;;;;5051513;28;20047;-88
2021/08/22 00:07:51;;;;;;;0.20;0.20;;;;;;;;;;5034752;28;20044;-88
2021/08/22 00:10:18;;;;;;;0.88;0.35;;;;;;;;;;5052441;28;20403;-88
2021/08/22 00:12:44;;;;;;;0.20;0.20;;;;;;;;;;5050565;28;20257;-88
2021/08/22 00:15:10;;;;;;;0.43;0.43;;;;;;;;;;5051107;28;20047;-88
2021/08/22 00:17:36;;;;;;;0.20;0.20;;;;;;;;;;5051356;28;20078;-88
2021/08/22 00:20:03;;;;;;;0.13;0.13;;;;;;;;;;5052488;28;20102;-88
2021/08/22 00:22:29;;;;;;;0.10;0.10;;;;;;;;;;5051080;28;20037;-88
2021/08/22 00:24:55;;;;;;;0.40;0.40;;;;;;;;;;5051357;28;20140;-88
2021/08/22 00:27:21;;;;;;;0.10;0.10;;;;;;;;;;5051162;28;20037;-88
2021/08/22 00:29:47;;;;;;;0.20;0.20;;;;;;;;;;5034743;28;20032;-88
2021/08/22 00:32:13;;;;;;;0.20;0.20;;;;;;;;;;5050951;28;20090;-88
2021/08/22 00:34:39;;;;;;;0.32;0.32;;;;;;;;;;5050726;28;20571;-88
2021/08/22 00:37:05;;;;;;;0.10;0.10;;;;;;;;;;5051076;28;20045;-88
2021/08/22 00:39:31;;;;;;;0.35;0.35;;;;;;;;;;5051000;28;20041;-89
2021/08/22 00:41:59;;;;;;;0.20;0.20;;;;;;;;;;5050965;28;20040;-88
2021/08/22 00:44:25;;;;;;;0.20;0.20;;;;;;;;;;5052015;28;20048;-88
2021/08/22 00:46:52;;;;;;;0.10;0.10;;;;;;;;;;5050828;28;20060;-88
2021/08/22 00:49:18;;;;;;;0.20;0.20;;;;;;;;;;5034393;28;20041;-88
2021/08/22 00:51:44;;;;;;;0.10;0.10;;;;;;;;;;5051800;28;20416;-88
2021/08/22 00:54:10;;;;;;;0.20;0.20;;;;;;;;;;5050593;28;20037;-88
2021/08/22 00:56:36;;;;;;;0.20;0.20;;;;;;;;;;5051959;28;20066;-88
2021/08/22 00:59:08;;;;;;;0.20;0.20;;;;;;;;;;5034182;28;20041;-88
2021/08/22 01:01:34;;;;;;;0.20;0.20;;;;;;;;;;5050945;28;20094;-89
2021/08/22 01:04:06;;;;;;;0.20;0.20;;;;;;;;;;5050578;28;20033;-90
2021/08/22 01:06:40;;;;;;;0.10;0.10;;;;;;;;;;5052036;28;20415;-88
2021/08/22 01:09:26;;;;;;;0.10;0.10;;;;;;;;;;5051877;28;20037;-89
2021/08/22 01:11:52;;;;;;;0.10;0.10;;;;;;;;;;5051797;28;20037;-89
2021/08/22 01:14:23;;;;;;;0.52;0.52;;;;;;;;;;5050713;28;20037;-89
2021/08/22 01:16:50;;;;;;;0.10;0.10;;;;;;;;;;5051841;28;20047;-89
2021/08/22 01:19:29;;;;;;;0.10;0.10;;;;;;;;;;5050616;28;20572;-88
2021/08/22 01:21:55;;;;;;;0.10;0.10;;;;;;;;;;5034443;28;20037;-89
2021/08/22 01:24:21;;;;;;;0.10;0.10;;;;;;;;;;5054400;28;20175;-88
2021/08/22 01:26:47;;;;;;;0.22;0.22;;;;;;;;;;5054434;28;20152;-88
2021/08/22 01:29:14;;;;;;;0.10;0.10;;;;;;;;;;5037756;28;20044;-88
2021/08/22 01:31:40;;;;;;;0.30;0.30;;;;;;;;;;5054399;28;20110;-88
2021/08/22 01:34:06;;;;;;;0.40;0.40;;;;;;;;;;5054070;28;20045;-89
2021/08/22 01:36:32;;;;;;;0.90;0.50;;;;;;;;;;5054513;28;20534;-88
2021/08/22 01:38:58;;;;;;;0.10;0.10;;;;;;;;;;5054268;28;20037;-88
2021/08/22 01:41:24;;;;;;;0.10;0.10;;;;;;;;;;5054186;28;20094;-89
2021/08/22 01:43:53;;;;;;;0.10;0.10;;;;;;;;;;5037767;28;20048;-90
2021/08/22 01:46:20;;;;;;;0.20;0.20;;;;;;;;;;5054071;28;20037;-88
2021/08/22 01:48:46;;;;;;;0.10;0.10;;;;;;;;;;5037593;28;20039;-89
2021/08/22 01:51:12;;;;;;;0.20;0.20;;;;;;;;;;5053979;28;20033;-88
2021/08/22 01:53:39;;;;;;;0.20;0.20;;;;;;;;;;5053904;28;20040;-88
2021/08/22 01:56:05;;;;;;;0.13;0.13;;;;;;;;;;5055112;28;20037;-88
2021/08/22 01:58:31;;;;;;;0.15;0.15;;;;;;;;;;5037443;28;20476;-88
2021/08/22 02:00:57;;;;;;;0.10;0.10;;;;;;;;;;5037274;28;20040;-89
2021/08/22 02:03:46;;;;;;;0.20;0.20;;;;;;;;;;5053940;28;20044;-89
2021/08/22 02:06:19;;;;;;;0.10;0.10;;;;;;;;;;5049637;28;20045;-89
2021/08/22 02:08:45;;;;;;;0.10;0.10;;;;;;;;;;5036648;28;20056;-89
2021/08/22 02:11:13;;;;;;;0.20;0.20;;;;;;;;;;5036982;28;20049;-88
2021/08/22 02:13:40;;;;;;;0.35;0.35;;;;;;;;;;5053506;28;20036;-88
2021/08/22 02:16:06;;;;;;;0.20;0.20;;;;;;;;;;5053489;28;20037;-89
2021/08/22 02:18:32;;;;;;;0.20;0.20;;;;;;;;;;5037339;28;20072;-88
2021/08/22 02:20:58;;;;;;;0.20;0.20;;;;;;;;;;5053487;28;20391;-88
2021/08/22 02:23:24;;;;;;;0.10;0.10;;;;;;;;;;5053151;28;20075;-89
2021/08/22 02:25:50;;;;;;;0.10;0.10;;;;;;;;;;5053399;28;20074;-89
2021/08/22 02:28:16;;;;;;;0.10;0.10;;;;;;;;;;5053227;28;20041;-88
2021/08/22 02:30:42;;;;;;;0.10;0.10;;;;;;;;;;5036896;28;20036;-88
2021/08/22 02:33:08;;;;;;;0.10;0.10;;;;;;;;;;5055994;28;20123;-88
2021/08/22 02:35:35;;;;;;;0.10;0.10;;;;;;;;;;5055832;28;20044;-89
2021/08/22 02:38:01;;;;;;;0.20;0.20;;;;;;;;;;5040144;28;20036;-89
2021/08/22 02:40:27;;;;;;;0.10;0.10;;;;;;;;;;5056616;28;20032;-89
2021/08/22 02:42:53;;;;;;;0.10;0.10;;;;;;;;;;5056749;28;20040;-89
2021/08/22 02:45:20;;;;;;;0.10;0.10;;;;;;;;;;5056796;28;20048;-88
2021/08/22 02:47:46;;;;;;;0.10;0.10;;;;;;;;;;5056273;28;20063;-89
2021/08/22 02:50:13;;;;;;;0.30;0.30;;;;;;;;;;5073962;28;20041;-88
2021/08/22 02:52:39;;;;;;;0.10;0.10;;;;;;;;;;5055786;28;20036;-87
2021/08/22 02:55:06;;;;;;;0.10;0.10;;;;;;;;;;5073988;28;20422;-88
2021/08/22 02:57:32;;;;;;;0.20;0.20;;;;;;;;;;5073858;28;20103;-88
2021/08/22 02:59:58;;;;;;;0.10;0.10;;;;;;;;;;5039456;28;20119;-88
2021/08/22 03:02:24;;;;;;;0.10;0.10;;;;;;;;;;5073737;28;20548;-88
2021/08/22 03:04:50;;;;;;;0.10;0.10;;;;;;;;;;5039234;28;20048;-88
2021/08/22 03:07:16;;;;;;;0.10;0.10;;;;;;;;;;5055817;28;20043;-88
2021/08/22 03:09:42;;;;;;;0.10;0.10;;;;;;;;;;5073652;28;20032;-88
2021/08/22 03:12:08;;;;;;;0.20;0.20;;;;;;;;;;5055835;28;20037;-88
2021/08/22 03:14:34;;;;;;;0.20;0.20;;;;;;;;;;5055884;28;20488;-89
2021/08/22 03:17:00;;;;;;;0.10;0.10;;;;;;;;;;5056150;28;20044;-89
2021/08/22 03:19:26;;;;;;;0.10;0.10;;;;;;;;;;5055961;28;20036;-88
2021/08/22 03:21:52;;;;;;;0.10;0.10;;;;;;;;;;5055431;28;20506;-89
2021/08/22 03:24:18;;;;;;;0.20;0.20;;;;;;;;;;5055578;28;20044;-88
2021/08/22 03:26:45;;;;;;;0.20;0.20;;;;;;;;;;5055629;28;20377;-89
2021/08/22 03:29:11;;;;;;;0.10;0.10;;;;;;;;;;5039061;28;20040;-89
2021/08/22 03:31:37;;;;;;;0.10;0.10;;;;;;;;;;5055888;28;20048;-89
2021/08/22 03:34:03;;;;;;;0.20;0.20;;;;;;;;;;5041325;28;20045;-89
2021/08/22 03:36:29;;;;;;;0.10;0.10;;;;;;;;;;5033483;28;20498;-90
2021/08/22 03:38:56;;;;;;;0.10;0.10;;;;;;;;;;5015994;28;20041;-89
2021/08/22 03:41:22;;;;;;;0.10;0.10;;;;;;;;;;5033245;28;20044;-89
2021/08/22 03:43:48;;;;;;;0.10;0.10;;;;;;;;;;5015803;28;20034;-90
2021/08/22 03:46:20;;;;;;;0.10;0.10;;;;;;;;;;5016916;28;20056;-90
2021/08/22 03:48:46;;;;;;;0.22;0.22;;;;;;;;;;5032692;28;20034;-92
2021/08/22 03:51:12;;;;;;;0.20;0.20;;;;;;;;;;5032511;28;20037;-91
2021/08/22 03:53:38;;;;;;;0.10;0.10;;;;;;;;;;5033126;28;20033;-92
2021/08/22 03:56:04;;;;;;;0.10;0.10;;;;;;;;;;5016232;28;20472;-92
2021/08/22 03:58:30;;;;;;;0.10;0.10;;;;;;;;;;5032961;28;20083;-94
2021/08/22 04:00:57;;;;;;;0.10;0.10;;;;;;;;;;5016631;28;20037;-95
2021/08/22 04:03:23;;;;;;;0.10;0.10;;;;;;;;;;5016451;28;20212;-94
2021/08/22 04:05:49;;;;;;;0.10;0.10;;;;;;;;;;5016497;28;20302;-93
2021/08/22 04:08:20;;;;;;;0.38;0.38;;;;;;;;;;5032930;28;20117;-93
2021/08/22 04:10:46;;;;;;;0.10;0.10;;;;;;;;;;5016633;28;20030;-93
2021/08/22 04:13:12;;;;;;;0.10;0.10;;;;;;;;;;5032609;28;20556;-91
2021/08/22 04:15:38;;;;;;;0.20;0.20;;;;;;;;;;5032565;28;20033;-94
2021/08/22 04:18:04;;;;;;;0.10;0.10;;;;;;;;;;5015669;28;20049;-94
2021/08/22 04:20:31;;;;;;;0.10;0.10;;;;;;;;;;5015865;28;20124;-93
2021/08/22 04:22:57;;;;;;;0.20;0.20;;;;;;;;;;5015863;28;20084;-95
2021/08/22 04:25:23;;;;;;;0.10;0.10;;;;;;;;;;5032800;28;20168;-96
2021/08/22 04:27:49;;;;;;;0.10;0.10;;;;;;;;;;5033609;28;20041;-93
2021/08/22 04:30:15;;;;;;;0.10;0.10;;;;;;;;;;5016061;28;20515;-94
2021/08/22 04:32:41;;;;;;;0.10;0.10;;;;;;;;;;5032284;28;20048;-94
2021/08/22 04:35:07;;;;;;;0.10;0.10;;;;;;;;;;5034903;28;20059;-94
2021/08/22 04:37:34;;;;;;;0.10;0.10;;;;;;;;;;5052394;28;20036;-94
2021/08/22 04:40:00;;;;;;;0.20;0.20;;;;;;;;;;5035618;28;20033;-93
2021/08/22 04:42:26;;;;;;;0.10;0.10;;;;;;;;;;5052385;28;20039;-92
2021/08/22 04:44:52;;;;;;;0.10;0.10;;;;;;;;;;5035655;28;20079;-93
2021/08/22 04:47:20;;;;;;;0.20;0.20;;;;;;;;;;5051743;28;20476;-94
2021/08/22 04:49:46;;;;;;;0.10;0.10;;;;;;;;;;5035186;28;20047;-94
2021/08/22 04:52:12;;;;;;;0.57;0.57;;;;;;;;;;5035313;28;20037;-93
2021/08/22 04:54:38;;;;;;;0.10;0.10;;;;;;;;;;5020943;28;20037;-93
2021/08/22 04:57:04;;;;;;;0.10;0.10;;;;;;;;;;5051245;28;20555;-93
2021/08/22 04:59:30;;;;;;;0.10;0.10;;;;;;;;;;5051622;28;20072;-92
2021/08/22 05:01:56;;;;;;;0.10;0.10;;;;;;;;;;5051818;28;20064;-91
2021/08/22 05:04:22;;;;;;;0.10;0.10;;;;;;;;;;5051770;28;20040;-93
2021/08/22 05:06:48;;;;;;;0.10;0.10;;;;;;;;;;5035350;28;20048;-94
2021/08/22 05:09:15;;;;;;;0.10;0.10;;;;;;;;;;5035182;28;20049;-95
2021/08/22 05:11:41;;;;;;;0.10;0.10;;;;;;;;;;5052011;28;20033;-95
2021/08/22 05:14:07;;;;;;;0.20;0.20;;;;;;;;;;5051361;28;20045;-94
2021/08/22 05:16:33;;;;;;;0.10;0.10;;;;;;;;;;5035072;28;20041;-95
2021/08/22 05:18:59;;;;;;;0.20;0.20;;;;;;;;;;5051790;28;20029;-93
2021/08/22 05:21:27;;;;;;;0.10;0.10;;;;;;;;;;5035176;28;20534;-93
2021/08/22 05:23:53;;;;;;;0.10;0.10;;;;;;;;;;5051587;28;20116;-92
2021/08/22 05:26:19;;;;;;;0.10;0.10;;;;;;;;;;5052024;28;20045;-93
2021/08/22 05:28:45;;;;;;;0.75;0.75;;;;;;;;;;5052298;28;20045;-94
2021/08/22 05:31:12;;;;;;;0.10;0.10;;;;;;;;;;5052422;28;20037;-94
2021/08/22 05:33:38;;;;;;;0.20;0.20;;;;;;;;;;5052050;28;20049;-94
2021/08/22 05:36:16;;;;;;;0.10;0.10;;;;;;;;;;5054131;28;20460;-93
2021/08/22 05:38:42;;;;;;;0.20;0.20;;;;;;;;;;5051005;28;20044;-91
2021/08/22 05:41:08;;;;;;;0.10;0.10;;;;;;;;;;5050726;28;20041;-90
2021/08/22 05:43:34;;;;;;;0.10;0.10;;;;;;;;;;5050964;28;20043;-91
2021/08/22 05:46:00;;;;;;;0.10;0.10;;;;;;;;;;5034456;28;20052;-91
2021/08/22 05:48:29;;;;;;;0.20;0.20;;;;;;;;;;5034614;28;20064;-92
2021/08/22 05:50:55;;;;;;;0.15;0.15;;;;;;;;;;5050917;28;20072;-91
2021/08/22 05:53:21;;;;;;;0.10;0.10;;;;;;;;;;5034201;28;20037;-91
2021/08/22 05:55:47;;;;;;;0.60;0.32;;;;;;;;;;5034467;28;20114;-91
2021/08/22 05:58:13;;;;;;;0.10;0.10;;;;;;;;;;5034618;28;20048;-92
2021/08/22 06:00:40;;;;;;;0.10;0.10;;;;;;;;;;5034379;28;20043;-92
2021/08/22 06:03:06;;;;;;;0.20;0.20;;;;;;;;;;5017696;28;20071;-92
2021/08/22 06:05:32;;;;;;;0.20;0.20;;;;;;;;;;5050760;28;20041;-91
2021/08/22 06:07:58;;;;;;;0.10;0.10;;;;;;;;;;5050695;28;20037;-91
2021/08/22 06:10:25;;;;;;;0.20;0.20;;;;;;;;;;5036226;28;20080;-92
2021/08/22 06:12:52;;;;;;;0.20;0.20;;;;;;;;;;5021136;28;20041;-92
2021/08/22 06:15:18;;;;;;;0.20;0.20;;;;;;;;;;5038015;28;20403;-92
2021/08/22 06:17:45;;;;;;;0.20;0.20;;;;;;;;;;5054403;28;20057;-93
2021/08/22 06:20:12;;;;;;;0.20;0.20;;;;;;;;;;5021641;28;20077;-93
2021/08/22 06:22:38;;;;;;;0.20;0.20;;;;;;;;;;5037478;28;20123;-93
2021/08/22 06:25:04;;;;;;;0.10;0.10;;;;;;;;;;5053918;28;20044;-93
2021/08/22 06:27:30;;;;;;;0.10;0.10;;;;;;;;;;5021588;28;20440;-92
2021/08/22 06:29:59;;;;;;;0.20;0.20;;;;;;;;;;5037261;28;20061;-94
2021/08/22 06:32:25;;;;;;;0.30;0.30;;;;;;;;;;5038069;28;20041;-91
2021/08/22 06:34:51;;;;;;;0.98;0.25;;;;;;;;;;5053565;28;20057;-91
2021/08/22 06:37:17;;;;;;;0.20;0.20;;;;;;;;;;5037635;28;20040;-92
2021/08/22 06:39:47;;;;;;;0.20;0.20;;;;;;;;;;5053906;28;20029;-92
2021/08/22 06:42:14;;;;;;;0.20;0.20;;;;;;;;;;5037847;28;20102;-93
2021/08/22 06:44:40;;;;;;;0.20;0.20;;;;;;;;;;5037630;28;20057;-92
2021/08/22 06:47:07;;;;;;;0.20;0.20;;;;;;;;;;5070523;28;20071;-92
2021/08/22 06:49:35;;;;;;;0.85;0.20;;;;;;;;;;5054087;28;20124;-92
2021/08/22 06:52:01;;;;;;;0.10;0.10;;;;;;;;;;5053534;28;20037;-93
2021/08/22 06:54:27;;;;;;;0.10;0.10;;;;;;;;;;5037193;28;20041;-93
2021/08/22 06:56:55;;;;;;;0.17;0.17;;;;;;;;;;5037346;28;20033;-93
2021/08/22 06:59:22;;;;;;;0.10;0.10;;;;;;;;;;5037886;28;20102;-93
2021/08/22 07:01:48;;;;;;;0.25;0.25;;;;;;;;;;5020924;28;20400;-93
2021/08/22 07:04:14;;;;;;;0.20;0.20;;;;;;;;;;5053520;28;20040;-93
2021/08/22 07:06:40;;;;;;;0.10;0.10;;;;;;;;;;5037246;28;20032;-93
2021/08/22 07:09:06;;;;;;;0.10;0.10;;;;;;;;;;5020823;28;20128;-93
2021/08/22 07:11:32;;;;;;;0.17;0.17;;;;;;;;;;5053616;28;20041;-92
2021/08/22 07:14:01;;;;;;;0.10;0.10;;;;;;;;;;5053443;28;20044;-93
2021/08/22 07:16:28;;;;;;;0.10;0.10;;;;;;;;;;5053529;28;20060;-91
2021/08/22 07:18:54;;;;;;;0.10;0.10;;;;;;;;;;5036907;28;20044;-93
2021/08/22 07:21:21;;;;;;;0.20;0.20;;;;;;;;;;5053034;28;20392;-93
2021/08/22 07:23:47;;;;;;;0.10;0.10;;;;;;;;;;5053675;28;20037;-93
2021/08/22 07:26:13;;;;;;;0.10;0.10;;;;;;;;;;5041538;28;20381;-92
2021/08/22 07:28:39;;;;;;;0.10;0.10;;;;;;;;;;5065205;28;20041;-92
2021/08/22 07:31:06;;;;;;;0.10;0.10;;;;;;;;;;5052242;28;20554;-91
2021/08/22 07:33:33;;;;;;;0.20;0.20;;;;;;;;;;5030999;28;20109;-89
2021/08/22 07:36:00;;;;;;;0.10;0.10;;;;;;;;;;5055108;28;20037;-90
2021/08/22 07:38:26;;;;;;;0.45;0.20;;;;;;;;;;5039389;28;20095;-91
2021/08/22 07:40:52;;;;;;;0.20;0.20;;;;;;;;;;5060523;28;20029;-90
2021/08/22 07:43:18;;;;;;;0.10;0.10;;;;;;;;;;5076971;28;20070;-89
2021/08/22 07:45:44;;;;;;;0.25;0.25;;;;;;;;;;5076917;28;20699;-89
2021/08/22 07:48:10;;;;;;;0.20;0.20;;;;;;;;;;5050574;28;20037;-91
2021/08/22 07:50:38;;;;;;;0.30;0.30;;;;;;;;;;5052516;28;20041;-91
2021/08/22 07:53:04;;;;;;;0.10;0.10;;;;;;;;;;5052452;28;20057;-92
2021/08/22 07:55:30;;;;;;;0.17;0.17;;;;;;;;;;5052387;28;20033;-91
2021/08/22 07:57:56;;;;;;;0.20;0.20;;;;;;;;;;5035971;28;20100;-91
2021/08/22 08:00:22;;;;;;;0.10;0.10;;;;;;;;;;5035859;28;20476;-91
2021/08/22 08:02:48;;;;;;;0.10;0.10;;;;;;;;;;5035826;28;20477;-91
2021/08/22 08:05:14;;;;;;;0.20;0.20;;;;;;;;;;5052115;28;20101;-91
2021/08/22 08:07:40;;;;;;;0.10;0.10;;;;;;;;;;5035704;28;20037;-91
2021/08/22 08:10:07;;;;;;;0.20;0.20;;;;;;;;;;5051846;28;20125;-92
2021/08/22 08:12:33;;;;;;;0.15;0.15;;;;;;;;;;5035929;28;20033;-92
2021/08/22 08:15:03;;;;;;;0.10;0.10;;;;;;;;;;5036208;28;20090;-91
2021/08/22 08:17:32;;;;;;;0.10;0.10;;;;;;;;;;5035834;28;20044;-91
2021/08/22 08:20:02;;;;;;;0.10;0.10;;;;;;;;;;5068729;28;20075;-91
2021/08/22 08:22:28;;;;;;;0.10;0.10;;;;;;;;;;5034878;28;20055;-91
2021/08/22 08:24:54;;;;;;;0.10;0.10;;;;;;;;;;5052154;28;20075;-92
2021/08/22 08:27:22;;;;;;;0.10;0.10;;;;;;;;;;5018785;28;20075;-92
2021/08/22 08:29:48;;;;;;;0.10;0.10;;;;;;;;;;5035487;28;20041;-92
2021/08/22 08:32:14;;;;;;;0.20;0.20;;;;;;;;;;5050899;28;20095;-92
2021/08/22 08:34:40;;;;;;;0.17;0.17;;;;;;;;;;5034928;28;20045;-92
2021/08/22 08:37:06;;;;;;;0.10;0.10;;;;;;;;;;5035216;28;20041;-91
2021/08/22 08:39:32;;;;;;;0.20;0.20;;;;;;;;;;5051966;28;20115;-92
2021/08/22 08:42:11;;;;;;;0.10;0.10;;;;;;;;;;5052715;28;20033;-92
2021/08/22 08:44:48;;;;;;;0.22;0.22;;;;;;;;;;5036879;28;20076;-92
2021/08/22 08:47:16;;;;;;;0.10;0.10;;;;;;;;;;5052620;28;20045;-94
2021/08/22 08:49:44;;;;;;;0.20;0.20;;;;;;;;;;5035112;28;20098;-92
2021/08/22 08:52:33;;;;;;;0.10;0.10;;;;;;;;;;5051416;28;20041;-90
2021/08/22 08:55:10;;;;;;;0.13;0.13;;;;;;;;;;5035042;28;20071;-92
2021/08/22 08:57:36;;;;;;;0.10;0.10;;;;;;;;;;5052417;28;20044;-91
2021/08/22 09:00:03;;;;;;;0.20;0.20;;;;;;;;;;5035016;28;20052;-93
2021/08/22 09:02:29;;;;;;;0.10;0.10;;;;;;;;;;5034884;28;20464;-91
2021/08/22 09:04:58;;;;;;;0.10;0.10;;;;;;;;;;5051548;28;20040;-92
2021/08/22 09:07:24;;;;;;;0.10;0.10;;;;;;;;;;5052378;28;20037;-91
2021/08/22 09:10:09;;;;;;;0.10;0.10;;;;;;;;;;5052265;28;20039;-93
2021/08/22 09:12:48;;;;;;;0.30;0.30;;;;;;;;;;5051281;28;20102;-92
2021/08/22 09:15:32;;;;;;;0.35;0.30;;;;;;;;;;5052420;28;20065;-92
2021/08/22 09:18:18;;;;;;;0.10;0.10;;;;;;;;;;5052343;28;20040;-91
2021/08/22 09:21:03;;;;;;;0.10;0.10;;;;;;;;;;5034504;28;20052;-91
2021/08/22 09:23:48;;;;;;;0.10;0.10;;;;;;;;;;5051287;28;20082;-91
2021/08/22 09:26:17;;;;;;;0.10;0.10;;;;;;;;;;5052364;28;20097;-91
2021/08/22 09:29:02;;;;;;;0.20;0.20;;;;;;;;;;5052144;28;20148;-92
2021/08/22 09:31:51;;;;;;;0.10;0.10;;;;;;;;;;5052345;28;20113;-92
2021/08/22 09:34:25;;;;;;;1.98;0.25;;;;;;;;;;5051170;28;20049;-92
2021/08/22 09:37:09;;;;;;;0.10;0.10;;;;;;;;;;5052389;28;20048;-91
2021/08/22 09:39:55;;;;;;;0.10;0.10;;;;;;;;;;5067773;28;20052;-92
2021/08/22 09:42:40;;;;;;;0.10;0.10;;;;;;;;;;5068062;28;20099;-92
2021/08/22 09:45:25;;;;;;;0.10;0.10;;;;;;;;;;5054132;28;20047;-91
2021/08/22 09:48:06;;;;;;;0.10;0.10;;;;;;;;;;5056447;28;20040;-93
2021/08/22 09:50:51;;;;;;;0.10;0.10;;;;;;;;;;5058625;28;20380;-91
2021/08/22 09:53:40;;;;;;;0.10;0.10;;;;;;;;;;5041540;28;20110;-92
2021/08/22 09:56:25;;;;;;;0.10;0.10;;;;;;;;;;5056560;28;20052;-92
2021/08/22 09:59:10;;;;;;;0.10;0.10;;;;;;;;;;5056143;28;20361;-92
2021/08/22 10:01:39;;;;;;;0.68;0.68;;;;;;;;;;5056160;28;20032;-92
2021/08/22 10:04:05;;;;;;;0.10;0.10;;;;;;;;;;5055821;28;20212;-93
2021/08/22 10:06:31;;;;;;;0.10;0.10;;;;;;;;;;5056143;28;20400;-93
2021/08/22 10:09:02;;;;;;;0.20;0.20;;;;;;;;;;5056442;28;20467;-93
2021/08/22 10:11:32;;;;;;;0.15;0.15;;;;;;;;;;5038642;28;20059;-92
2021/08/22 10:13:58;;;;;;;0.10;0.10;;;;;;;;;;5038235;28;20476;-92
2021/08/22 10:16:26;;;;;;;0.20;0.20;;;;;;;;;;5054732;28;20041;-92
2021/08/22 10:19:04;;;;;;;0.20;0.20;;;;;;;;;;5055138;28;20051;-92
2021/08/22 10:21:30;;;;;;;0.20;0.20;;;;;;;;;;5054640;28;20095;-92
2021/08/22 10:23:58;;;;;;;0.30;0.30;;;;;;;;;;5054533;28;20112;-91
2021/08/22 10:26:43;;;;;;;0.10;0.10;;;;;;;;;;5054407;28;20071;-92
2021/08/22 10:29:10;;;;;;;0.47;0.47;;;;;;;;;;5055403;28;20037;-91
2021/08/22 10:31:51;;;;;;;0.10;0.10;;;;;;;;;;5037769;28;20041;-92
2021/08/22 10:34:17;;;;;;;0.10;0.10;;;;;;;;;;5053821;28;20072;-92
2021/08/22 10:36:43;;;;;;;0.10;0.10;;;;;;;;;;5037492;28;20488;-92
2021/08/22 10:39:22;;;;;;;0.20;0.20;;;;;;;;;;5053817;28;20041;-91
2021/08/22 10:41:48;;;;;;;0.20;0.20;;;;;;;;;;5053959;28;20060;-91
2021/08/22 10:44:36;;;;;;;0.10;0.10;;;;;;;;;;5054205;28;20484;-91
2021/08/22 10:47:09;;;;;;;0.20;0.20;;;;;;;;;;5037793;28;20043;-93
2021/08/22 10:49:53;;;;;;;0.20;0.20;;;;;;;;;;5054664;28;20037;-92
2021/08/22 10:52:22;;;;;;;0.13;0.13;;;;;;;;;;5054497;28;20044;-91
2021/08/22 10:55:08;;;;;;;0.10;0.10;;;;;;;;;;5053392;28;20045;-91
2021/08/22 10:57:48;;;;;;;0.10;0.10;;;;;;;;;;5054624;28;20041;-92
2021/08/22 11:00:21;;;;;;;0.63;0.63;;;;;;;;;;5053421;28;20171;-91
2021/08/22 11:02:47;;;;;;;0.35;0.35;;;;;;;;;;5053644;28;20033;-92
2021/08/22 11:05:15;;;;;;;0.13;0.13;;;;;;;;;;5037039;28;20136;-91
2021/08/22 11:07:42;;;;;;;0.10;0.10;;;;;;;;;;5037020;28;20041;-92
2021/08/22 11:10:12;;;;;;;0.10;0.10;;;;;;;;;;5054310;28;20539;-92
2021/08/22 11:12:39;;;;;;;0.50;0.50;;;;;;;;;;5036712;28;20033;-92
2021/08/22 11:15:05;;;;;;;0.20;0.20;;;;;;;;;;5036839;28;20401;-92
2021/08/22 11:17:31;;;;;;;0.20;0.20;;;;;;;;;;5036720;28;20101;-90
2021/08/22 11:20:10;;;;;;;0.10;0.10;;;;;;;;;;5052892;28;20037;-92
2021/08/22 11:22:36;;;;;;;0.10;0.10;;;;;;;;;;5053041;28;20033;-91
2021/08/22 11:25:03;;;;;;;0.38;0.38;;;;;;;;;;5036440;28;20103;-91
2021/08/22 11:27:29;;;;;;;0.20;0.20;;;;;;;;;;5036421;28;20069;-91
2021/08/22 11:29:59;;;;;;;0.20;0.20;;;;;;;;;;5053043;28;20116;-91
2021/08/22 11:32:25;;;;;;;0.20;0.20;;;;;;;;;;5052802;28;20033;-92
2021/08/22 11:34:51;;;;;;;0.10;0.10;;;;;;;;;;5036248;28;20083;-91
2021/08/22 11:37:18;;;;;;;0.40;0.40;;;;;;;;;;5052787;28;20037;-91
2021/08/22 11:39:44;;;;;;;0.10;0.10;;;;;;;;;;5052560;28;20475;-91
2021/08/22 11:42:10;;;;;;;0.20;0.20;;;;;;;;;;5036017;28;20104;-91
2021/08/22 11:44:36;;;;;;;0.10;0.10;;;;;;;;;;5052409;28;20060;-90
2021/08/22 11:47:02;;;;;;;0.10;0.10;;;;;;;;;;5035973;28;20139;-90
2021/08/22 11:49:28;;;;;;;0.10;0.10;;;;;;;;;;5035676;28;20061;-91
2021/08/22 11:51:55;;;;;;;0.10;0.10;;;;;;;;;;5053191;28;20044;-91
2021/08/22 11:54:21;;;;;;;0.10;0.10;;;;;;;;;;5052331;28;20448;-90
2021/08/22 11:56:48;;;;;;;0.20;0.20;;;;;;;;;;5052234;28;20052;-91
2021/08/22 11:59:24;;;;;;;0.13;0.13;;;;;;;;;;5035732;28;20476;-91
2021/08/22 12:01:50;;;;;;;0.20;0.20;;;;;;;;;;5053076;28;20112;-91
2021/08/22 12:04:18;;;;;;;0.20;0.20;;;;;;;;;;5052172;28;20067;-91
2021/08/22 12:06:45;;;;;;;0.50;0.20;;;;;;;;;;5035634;28;20040;-90
2021/08/22 12:09:18;;;;;;;0.10;0.10;;;;;;;;;;5052040;28;20161;-91
2021/08/22 12:11:44;;;;;;;0.10;0.10;;;;;;;;;;5051770;28;20037;-91
2021/08/22 12:14:14;;;;;;;0.10;0.10;;;;;;;;;;5035132;28;20064;-90
2021/08/22 12:16:41;;;;;;;0.25;0.25;;;;;;;;;;5035032;28;20049;-90
2021/08/22 12:19:27;;;;;;;0.20;0.20;;;;;;;;;;5035334;28;20099;-91
2021/08/22 12:21:53;;;;;;;0.20;0.20;;;;;;;;;;5051764;28;20056;-91
2021/08/22 12:24:20;;;;;;;0.25;0.22;;;;;;;;;;5035445;28;20560;-91
2021/08/22 12:26:51;;;;;;;0.10;0.10;;;;;;;;;;5051716;28;20120;-91
2021/08/22 12:29:18;;;;;;;0.30;0.20;;;;;;;;;;5035311;28;20049;-92
2021/08/22 12:31:44;;;;;;;0.10;0.10;;;;;;;;;;5035006;28;20032;-91
2021/08/22 12:34:15;;;;;;;0.10;0.10;;;;;;;;;;5051662;28;20484;-92
2021/08/22 12:36:43;;;;;;;0.10;0.10;;;;;;;;;;5051761;28;20052;-93
2021/08/22 12:39:10;;;;;;;0.20;0.20;;;;;;;;;;5052069;28;20040;-91
2021/08/22 12:41:43;;;;;;;0.10;0.10;;;;;;;;;;5051550;28;20139;-92
2021/08/22 12:44:12;;;;;;;0.10;0.10;;;;;;;;;;5052866;28;20431;-93
2021/08/22 12:46:39;;;;;;;0.10;0.10;;;;;;;;;;5051725;28;20119;-91
2021/08/22 12:49:05;;;;;;;0.10;0.10;;;;;;;;;;5034973;28;20045;-91
2021/08/22 12:51:31;;;;;;;0.20;0.20;;;;;;;;;;5035085;28;20437;-91
2021/08/22 12:53:57;;;;;;;0.10;0.10;;;;;;;;;;5051424;28;20036;-91
2021/08/22 12:56:23;;;;;;;0.20;0.20;;;;;;;;;;5035144;28;20044;-92
2021/08/22 12:58:52;;;;;;;0.10;0.10;;;;;;;;;;5052457;28;20052;-92
2021/08/22 13:01:19;;;;;;;0.10;0.10;;;;;;;;;;5035304;28;20041;-92
2021/08/22 13:03:45;;;;;;;0.10;0.10;;;;;;;;;;5051445;28;20483;-92
2021/08/22 13:06:11;;;;;;;0.10;0.10;;;;;;;;;;5035303;28;20044;-93
2021/08/22 13:08:37;;;;;;;0.20;0.20;;;;;;;;;;5051669;28;20480;-93
2021/08/22 13:11:03;;;;;;;0.38;0.38;;;;;;;;;;5051505;28;20037;-93
2021/08/22 13:13:30;;;;;;;0.20;0.20;;;;;;;;;;5068519;28;20377;-94
2021/08/22 13:15:59;;;;;;;0.10;0.10;;;;;;;;;;5051643;28;20448;-92
2021/08/22 13:18:32;;;;;;;0.15;0.15;;;;;;;;;;5052391;28;20041;-93
2021/08/22 13:20:58;;;;;;;0.20;0.20;;;;;;;;;;5056833;28;20093;-94
2021/08/22 13:23:24;;;;;;;0.10;0.10;;;;;;;;;;5039135;28;20052;-94
2021/08/22 13:25:50;;;;;;;0.63;0.63;;;;;;;;;;5022460;28;20052;-94
2021/08/22 13:28:16;;;;;;;0.15;0.15;;;;;;;;;;5039138;28;20033;-93
2021/08/22 13:30:44;;;;;;;0.30;0.30;;;;;;;;;;5055667;28;20037;-93
2021/08/22 13:33:12;;;;;;;0.10;0.10;;;;;;;;;;5056070;28;20107;-94
2021/08/22 13:35:38;;;;;;;0.10;0.10;;;;;;;;;;5059127;28;20336;-94
2021/08/22 13:38:04;;;;;;;0.40;0.40;;;;;;;;;;5042303;28;20046;-94
2021/08/22 13:40:31;;;;;;;0.15;0.15;;;;;;;;;;5059302;28;20064;-94
2021/08/22 13:42:58;;;;;;;0.32;0.32;;;;;;;;;;5058460;28;20037;-92
2021/08/22 13:45:24;;;;;;;0.10;0.10;;;;;;;;;;5076421;28;20052;-93
2021/08/22 13:47:50;;;;;;;0.65;0.30;;;;;;;;;;5058691;28;20044;-93
2021/08/22 13:50:16;;;;;;;0.20;0.20;;;;;;;;;;5042106;28;20177;-94
2021/08/22 13:52:44;;;;;;;0.30;0.30;;;;;;;;;;5041618;28;20040;-92
2021/08/22 13:55:10;;;;;;;0.10;0.10;;;;;;;;;;5025737;28;20044;-94
2021/08/22 13:57:36;;;;;;;0.20;0.20;;;;;;;;;;5041983;28;20060;-93
2021/08/22 14:00:04;;;;;;;0.10;0.10;;;;;;;;;;5058499;28;20044;-93
2021/08/22 14:02:30;;;;;;;0.30;0.30;;;;;;;;;;5041666;28;20045;-93
2021/08/22 14:04:56;;;;;;;0.10;0.10;;;;;;;;;;5025805;28;20052;-93
2021/08/22 14:07:22;;;;;;;0.10;0.10;;;;;;;;;;5042452;28;20036;-92
2021/08/22 14:09:48;;;;;;;0.10;0.10;;;;;;;;;;5058409;28;20560;-93
2021/08/22 14:12:14;;;;;;;0.10;0.10;;;;;;;;;;5041504;28;20072;-92
2021/08/22 14:14:42;;;;;;;0.20;0.20;;;;;;;;;;5057870;28;20052;-93
2021/08/22 14:17:08;;;;;;;0.20;0.20;;;;;;;;;;5041646;28;20051;-93
2021/08/22 14:19:34;;;;;;;0.10;0.10;;;;;;;;;;5058006;28;20045;-92
2021/08/22 14:22:00;;;;;;;0.10;0.10;;;;;;;;;;5024592;28;20170;-92
2021/08/22 14:24:27;;;;;;;0.20;0.20;;;;;;;;;;5058037;28;20071;-92
2021/08/22 14:26:58;;;;;;;;;;;;;;;;;;5058688;28;20048;-91
2021/08/22 14:29:24;;;;;;;0.20;0.20;;;;;;;;;;5073154;28;19920;-91
2021/08/22 14:31:53;;;;;;;0.10;0.10;;;;;;;;;;5056400;28;20036;-91
2021/08/22 14:34:19;;;;;;;0.52;0.52;;;;;;;;;;5042749;28;20042;-91
2021/08/22 14:36:46;;;;;;;0.10;0.10;;;;;;;;;;5033584;28;20053;-91
2021/08/22 14:39:12;;;;;;;0.10;0.10;;;;;;;;;;5017010;28;20488;-92
2021/08/22 14:41:38;;;;;;;0.20;0.20;;;;;;;;;;5017471;28;20298;-90
2021/08/22 14:44:04;;;;;;;0.20;0.20;;;;;;;;;;5016585;28;20101;-90
2021/08/22 14:46:30;;;;;;;0.20;0.20;;;;;;;;;;5000517;28;20136;-90
2021/08/22 14:48:56;;;;;;;0.10;0.10;;;;;;;;;;5033050;28;20069;-90